Meath Environmental Platform

Observations for Trim Market St

Time AQI Temp °C Hum % Pres Pa CO μg/m³ H₂S μg/m³ NO μg/m³ NO₂ μg/m³ O₃ μg/m³ SO₂ μg/m³ PM1 μg/m³ PM2.5 μg/m³ PM10 μg/m³
Wednesday 8 July 2026
03:45 1 16.6 77 27,142 0.04 0 0 2.86 11.16 0 0 1.31 3.42
03:43 1 16.7 77 27,999 0.04 0 0 3.05 11.15 0 0.71 1.31 4.01
03:42 1 16.7 76 28,408 0.04 0 0.06 3.26 10.79 0 0 1.32 3.41
03:41 1 16.7 76 28,871 0.03 0 0 2.87 11.55 0 0 1.32 3.41
03:37 1 16.8 76 30,299 0.01 0 0 2.46 11.39 0 0 1.81 3.99
03:36 1 16.8 76 30,638 0.02 0 0 2.77 10.57 0 0 1.33 3.4
03:32 1 16.9 76 32,642 0 0 0 1.77 11.21 0 0 1.34 4.57
03:25 1 17 76 35,036 0.01 0 0 0.77 14.85 0 0 1.35 3.38
03:22 1 17 76 34,939 0.02 0 0 1.58 9.51 0 0 1.36 3.38
03:21 1 17.1 76 34,970 0 0 0 2.74 9.43 0 0 0.87 2.79
03:20 1 17.1 76 35,002 0.01 0 0.34 2.24 7.74 0 0 1.35 3.38
03:19 1 17.1 76 34,946 0.01 0 0 2.04 6.72 0 0 0.87 2.79
03:18 1 17.1 76 34,871 0 0 0.4 2.14 8.41 0 0 1.83 4.57
03:17 1 17.1 76 34,836 0.01 0 0 2.24 8.81 0 0 1.35 3.97
03:16 1 17.2 76 34,956 0 0 0 2.71 9.35 0 0 1.35 3.38
03:15 1 17.1 76 35,195 0.01 0 0 2.45 9.73 0 0 1.83 3.97
03:14 1 17.2 76 35,391 0.01 0 0 2.92 10.27 0 0 1.36 3.38
03:13 1 17.2 76 35,615 0 0 0 3.12 8.51 0 0 1.36 3.38
03:12 1 17.2 76 35,821 0 0 0 3.02 9.28 0 0.71 1.83 3.97
03:11 1 17.2 76 35,941 0.01 0 0 2.32 9.79 0 0 1.36 3.38